sensor_id;sensor_type;location;lat;lon;timestamp;P1;durP1;ratioP1;P2;durP2;ratioP2
68284;SDS011;55114;52.052;5.238;2022-07-22T00:02:16;6.95;;;2.30;;
68284;SDS011;55114;52.052;5.238;2022-07-22T00:04:43;5.95;;;2.38;;
68284;SDS011;55114;52.052;5.238;2022-07-22T00:07:10;6.65;;;1.92;;
68284;SDS011;55114;52.052;5.238;2022-07-22T00:09:39;9.40;;;2.10;;
68284;SDS011;55114;52.052;5.238;2022-07-22T00:12:06;6.72;;;2.13;;
68284;SDS011;55114;52.052;5.238;2022-07-22T00:14:33;8.95;;;2.38;;
68284;SDS011;55114;52.052;5.238;2022-07-22T00:17:00;10.45;;;2.40;;
68284;SDS011;55114;52.052;5.238;2022-07-22T00:19:27;7.38;;;2.35;;
68284;SDS011;55114;52.052;5.238;2022-07-22T00:21:54;8.47;;;2.30;;
68284;SDS011;55114;52.052;5.238;2022-07-22T00:24:22;8.50;;;2.35;;
68284;SDS011;55114;52.052;5.238;2022-07-22T00:26:49;7.15;;;2.20;;
68284;SDS011;55114;52.052;5.238;2022-07-22T00:29:16;7.90;;;2.10;;
68284;SDS011;55114;52.052;5.238;2022-07-22T00:31:43;7.68;;;2.83;;
68284;SDS011;55114;52.052;5.238;2022-07-22T00:34:10;8.03;;;2.20;;
68284;SDS011;55114;52.052;5.238;2022-07-22T00:36:37;10.75;;;2.55;;
68284;SDS011;55114;52.052;5.238;2022-07-22T00:39:05;7.75;;;2.10;;
68284;SDS011;55114;52.052;5.238;2022-07-22T00:41:32;8.20;;;2.30;;
68284;SDS011;55114;52.052;5.238;2022-07-22T00:44:04;10.73;;;2.20;;
68284;SDS011;55114;52.052;5.238;2022-07-22T00:46:32;10.00;;;2.57;;
68284;SDS011;55114;52.052;5.238;2022-07-22T00:49:00;10.85;;;2.15;;
68284;SDS011;55114;52.052;5.238;2022-07-22T00:51:28;6.40;;;2.85;;
68284;SDS011;55114;52.052;5.238;2022-07-22T00:53:56;6.35;;;2.38;;
68284;SDS011;55114;52.052;5.238;2022-07-22T00:56:24;7.50;;;2.22;;
68284;SDS011;55114;52.052;5.238;2022-07-22T00:58:52;4.97;;;2.10;;
68284;SDS011;55114;52.052;5.238;2022-07-22T01:01:20;8.43;;;2.20;;
68284;SDS011;55114;52.052;5.238;2022-07-22T01:03:47;7.63;;;2.10;;
68284;SDS011;55114;52.052;5.238;2022-07-22T01:06:19;10.13;;;2.30;;
68284;SDS011;55114;52.052;5.238;2022-07-22T01:08:46;6.03;;;2.10;;
68284;SDS011;55114;52.052;5.238;2022-07-22T01:11:14;9.10;;;2.10;;
68284;SDS011;55114;52.052;5.238;2022-07-22T01:13:42;10.32;;;2.78;;
68284;SDS011;55114;52.052;5.238;2022-07-22T01:16:09;8.73;;;2.20;;
68284;SDS011;55114;52.052;5.238;2022-07-22T01:18:37;4.68;;;1.70;;
68284;SDS011;55114;52.052;5.238;2022-07-22T01:21:05;7.78;;;2.30;;
68284;SDS011;55114;52.052;5.238;2022-07-22T01:23:32;6.30;;;2.00;;
68284;SDS011;55114;52.052;5.238;2022-07-22T01:26:00;7.00;;;2.08;;
68284;SDS011;55114;52.052;5.238;2022-07-22T01:28:27;10.75;;;2.35;;
68284;SDS011;55114;52.052;5.238;2022-07-22T01:30:54;7.20;;;1.90;;
68284;SDS011;55114;52.052;5.238;2022-07-22T01:33:22;7.53;;;1.90;;
68284;SDS011;55114;52.052;5.238;2022-07-22T01:35:50;6.87;;;2.00;;
68284;SDS011;55114;52.052;5.238;2022-07-22T01:38:17;7.47;;;1.92;;
68284;SDS011;55114;52.052;5.238;2022-07-22T01:40:44;7.10;;;2.22;;
68284;SDS011;55114;52.052;5.238;2022-07-22T01:43:12;7.60;;;1.90;;
68284;SDS011;55114;52.052;5.238;2022-07-22T01:45:44;5.90;;;1.92;;
68284;SDS011;55114;52.052;5.238;2022-07-22T01:48:11;7.07;;;1.90;;
68284;SDS011;55114;52.052;5.238;2022-07-22T01:50:39;5.47;;;1.83;;
68284;SDS011;55114;52.052;5.238;2022-07-22T01:53:06;8.02;;;1.80;;
68284;SDS011;55114;52.052;5.238;2022-07-22T01:55:33;8.63;;;1.90;;
68284;SDS011;55114;52.052;5.238;2022-07-22T01:58:00;9.25;;;1.92;;
68284;SDS011;55114;52.052;5.238;2022-07-22T02:00:29;8.17;;;1.93;;
68284;SDS011;55114;52.052;5.238;2022-07-22T02:02:57;5.43;;;1.60;;
68284;SDS011;55114;52.052;5.238;2022-07-22T02:05:24;6.88;;;1.80;;
68284;SDS011;55114;52.052;5.238;2022-07-22T02:07:51;5.70;;;1.90;;
68284;SDS011;55114;52.052;5.238;2022-07-22T02:10:18;7.45;;;2.03;;
68284;SDS011;55114;52.052;5.238;2022-07-22T02:12:45;5.63;;;1.70;;
68284;SDS011;55114;52.052;5.238;2022-07-22T02:15:12;4.97;;;1.85;;
68284;SDS011;55114;52.052;5.238;2022-07-22T02:17:39;5.78;;;1.77;;
68284;SDS011;55114;52.052;5.238;2022-07-22T02:20:06;6.88;;;1.75;;
68284;SDS011;55114;52.052;5.238;2022-07-22T02:22:34;7.35;;;1.60;;
68284;SDS011;55114;52.052;5.238;2022-07-22T02:25:01;8.37;;;1.90;;
68284;SDS011;55114;52.052;5.238;2022-07-22T02:27:29;7.40;;;1.98;;
68284;SDS011;55114;52.052;5.238;2022-07-22T02:29:56;6.68;;;2.08;;
68284;SDS011;55114;52.052;5.238;2022-07-22T02:32:23;6.55;;;1.75;;
68284;SDS011;55114;52.052;5.238;2022-07-22T02:34:50;6.75;;;1.67;;
68284;SDS011;55114;52.052;5.238;2022-07-22T02:37:17;4.53;;;1.57;;
68284;SDS011;55114;52.052;5.238;2022-07-22T02:39:44;6.50;;;1.58;;
68284;SDS011;55114;52.052;5.238;2022-07-22T02:42:12;5.10;;;1.75;;
68284;SDS011;55114;52.052;5.238;2022-07-22T02:44:39;6.82;;;1.80;;
68284;SDS011;55114;52.052;5.238;2022-07-22T02:47:06;6.43;;;1.75;;
68284;SDS011;55114;52.052;5.238;2022-07-22T02:49:33;5.53;;;1.70;;
68284;SDS011;55114;52.052;5.238;2022-07-22T02:52:00;6.72;;;1.92;;
68284;SDS011;55114;52.052;5.238;2022-07-22T02:54:27;5.68;;;1.50;;
68284;SDS011;55114;52.052;5.238;2022-07-22T02:56:54;7.50;;;1.83;;
68284;SDS011;55114;52.052;5.238;2022-07-22T02:59:21;5.45;;;1.65;;
68284;SDS011;55114;52.052;5.238;2022-07-22T03:01:48;6.83;;;1.77;;
68284;SDS011;55114;52.052;5.238;2022-07-22T03:04:16;5.45;;;1.80;;
68284;SDS011;55114;52.052;5.238;2022-07-22T03:06:43;6.40;;;1.60;;
68284;SDS011;55114;52.052;5.238;2022-07-22T03:09:10;8.65;;;1.83;;
68284;SDS011;55114;52.052;5.238;2022-07-22T03:11:37;6.80;;;1.60;;
68284;SDS011;55114;52.052;5.238;2022-07-22T03:14:04;3.87;;;1.50;;
68284;SDS011;55114;52.052;5.238;2022-07-22T03:16:31;5.22;;;1.65;;
68284;SDS011;55114;52.052;5.238;2022-07-22T03:18:59;6.05;;;1.60;;
68284;SDS011;55114;52.052;5.238;2022-07-22T03:21:26;5.18;;;1.50;;
68284;SDS011;55114;52.052;5.238;2022-07-22T03:23:53;6.40;;;1.70;;
68284;SDS011;55114;52.052;5.238;2022-07-22T03:26:21;5.17;;;1.80;;
68284;SDS011;55114;52.052;5.238;2022-07-22T03:28:48;5.78;;;1.60;;
68284;SDS011;55114;52.052;5.238;2022-07-22T03:31:16;4.63;;;1.60;;
68284;SDS011;55114;52.052;5.238;2022-07-22T03:33:43;4.47;;;1.40;;
68284;SDS011;55114;52.052;5.238;2022-07-22T03:36:10;10.15;;;1.52;;
68284;SDS011;55114;52.052;5.238;2022-07-22T03:38:37;6.40;;;1.47;;
68284;SDS011;55114;52.052;5.238;2022-07-22T03:41:04;6.03;;;1.50;;
68284;SDS011;55114;52.052;5.238;2022-07-22T03:43:31;5.70;;;1.67;;
68284;SDS011;55114;52.052;5.238;2022-07-22T03:45:58;7.72;;;1.48;;
68284;SDS011;55114;52.052;5.238;2022-07-22T03:48:26;4.90;;;1.52;;
68284;SDS011;55114;52.052;5.238;2022-07-22T03:50:53;8.93;;;1.70;;
68284;SDS011;55114;52.052;5.238;2022-07-22T03:53:20;5.80;;;1.70;;
68284;SDS011;55114;52.052;5.238;2022-07-22T03:55:48;6.40;;;1.70;;
68284;SDS011;55114;52.052;5.238;2022-07-22T03:58:16;6.50;;;1.80;;
68284;SDS011;55114;52.052;5.238;2022-07-22T04:00:44;8.32;;;1.92;;
68284;SDS011;55114;52.052;5.238;2022-07-22T04:03:11;7.37;;;1.60;;
68284;SDS011;55114;52.052;5.238;2022-07-22T04:05:38;6.47;;;1.77;;
68284;SDS011;55114;52.052;5.238;2022-07-22T04:08:05;6.05;;;1.65;;
68284;SDS011;55114;52.052;5.238;2022-07-22T04:10:32;5.72;;;1.50;;
68284;SDS011;55114;52.052;5.238;2022-07-22T04:12:59;4.95;;;1.58;;
68284;SDS011;55114;52.052;5.238;2022-07-22T04:15:27;8.33;;;2.13;;
68284;SDS011;55114;52.052;5.238;2022-07-22T04:17:54;6.18;;;1.50;;
68284;SDS011;55114;52.052;5.238;2022-07-22T04:20:21;7.70;;;1.60;;
68284;SDS011;55114;52.052;5.238;2022-07-22T04:22:48;5.18;;;1.42;;
68284;SDS011;55114;52.052;5.238;2022-07-22T04:25:16;6.18;;;1.50;;
68284;SDS011;55114;52.052;5.238;2022-07-22T04:27:43;5.77;;;1.50;;
68284;SDS011;55114;52.052;5.238;2022-07-22T04:30:10;5.15;;;1.40;;
68284;SDS011;55114;52.052;5.238;2022-07-22T04:32:38;4.53;;;1.38;;
68284;SDS011;55114;52.052;5.238;2022-07-22T04:35:05;4.63;;;1.63;;
68284;SDS011;55114;52.052;5.238;2022-07-22T04:37:32;4.82;;;1.77;;
68284;SDS011;55114;52.052;5.238;2022-07-22T04:39:59;5.97;;;1.27;;
68284;SDS011;55114;52.052;5.238;2022-07-22T04:42:27;4.07;;;1.20;;
68284;SDS011;55114;52.052;5.238;2022-07-22T04:44:54;6.75;;;1.20;;
68284;SDS011;55114;52.052;5.238;2022-07-22T04:47:21;4.68;;;1.20;;
68284;SDS011;55114;52.052;5.238;2022-07-22T04:49:48;6.05;;;1.15;;
68284;SDS011;55114;52.052;5.238;2022-07-22T04:52:15;5.83;;;1.40;;
68284;SDS011;55114;52.052;5.238;2022-07-22T04:54:43;5.13;;;1.00;;
68284;SDS011;55114;52.052;5.238;2022-07-22T04:57:12;9.70;;;1.48;;
68284;SDS011;55114;52.052;5.238;2022-07-22T04:59:39;4.30;;;1.27;;
68284;SDS011;55114;52.052;5.238;2022-07-22T05:02:06;3.83;;;1.20;;
68284;SDS011;55114;52.052;5.238;2022-07-22T05:04:33;4.60;;;1.10;;
68284;SDS011;55114;52.052;5.238;2022-07-22T05:07:01;4.88;;;1.25;;
68284;SDS011;55114;52.052;5.238;2022-07-22T05:09:29;4.90;;;1.45;;
68284;SDS011;55114;52.052;5.238;2022-07-22T05:11:57;7.10;;;1.40;;
68284;SDS011;55114;52.052;5.238;2022-07-22T05:14:24;5.03;;;1.15;;
68284;SDS011;55114;52.052;5.238;2022-07-22T05:16:51;4.50;;;1.17;;
68284;SDS011;55114;52.052;5.238;2022-07-22T05:19:18;3.85;;;1.10;;
68284;SDS011;55114;52.052;5.238;2022-07-22T05:21:45;5.82;;;1.30;;
68284;SDS011;55114;52.052;5.238;2022-07-22T05:24:12;5.05;;;1.27;;
68284;SDS011;55114;52.052;5.238;2022-07-22T05:26:40;4.30;;;1.23;;
68284;SDS011;55114;52.052;5.238;2022-07-22T05:29:07;4.27;;;1.60;;
68284;SDS011;55114;52.052;5.238;2022-07-22T05:31:34;5.32;;;1.30;;
68284;SDS011;55114;52.052;5.238;2022-07-22T05:34:01;4.72;;;1.20;;
68284;SDS011;55114;52.052;5.238;2022-07-22T05:36:29;4.25;;;1.20;;
68284;SDS011;55114;52.052;5.238;2022-07-22T05:38:56;5.35;;;1.52;;
68284;SDS011;55114;52.052;5.238;2022-07-22T05:41:24;5.47;;;1.33;;
68284;SDS011;55114;52.052;5.238;2022-07-22T05:43:51;5.90;;;1.42;;
68284;SDS011;55114;52.052;5.238;2022-07-22T05:46:18;4.15;;;1.20;;
68284;SDS011;55114;52.052;5.238;2022-07-22T05:48:45;5.35;;;1.00;;
68284;SDS011;55114;52.052;5.238;2022-07-22T05:51:13;6.40;;;1.20;;
68284;SDS011;55114;52.052;5.238;2022-07-22T05:53:40;2.90;;;1.03;;
68284;SDS011;55114;52.052;5.238;2022-07-22T05:56:08;2.72;;;1.00;;
68284;SDS011;55114;52.052;5.238;2022-07-22T05:58:40;4.60;;;1.50;;
68284;SDS011;55114;52.052;5.238;2022-07-22T06:01:08;6.97;;;1.67;;
68284;SDS011;55114;52.052;5.238;2022-07-22T06:03:36;3.85;;;1.33;;
68284;SDS011;55114;52.052;5.238;2022-07-22T06:06:03;6.47;;;1.27;;
68284;SDS011;55114;52.052;5.238;2022-07-22T06:08:31;6.50;;;1.20;;
68284;SDS011;55114;52.052;5.238;2022-07-22T06:10:58;3.80;;;1.30;;
68284;SDS011;55114;52.052;5.238;2022-07-22T06:13:26;4.35;;;1.23;;
68284;SDS011;55114;52.052;5.238;2022-07-22T06:15:53;4.25;;;1.38;;
68284;SDS011;55114;52.052;5.238;2022-07-22T06:18:20;4.77;;;1.10;;
68284;SDS011;55114;52.052;5.238;2022-07-22T06:20:47;4.72;;;1.20;;
68284;SDS011;55114;52.052;5.238;2022-07-22T06:23:14;3.78;;;1.50;;
68284;SDS011;55114;52.052;5.238;2022-07-22T06:25:42;4.55;;;1.23;;
68284;SDS011;55114;52.052;5.238;2022-07-22T06:28:10;3.88;;;1.40;;
68284;SDS011;55114;52.052;5.238;2022-07-22T06:30:37;3.90;;;1.10;;
68284;SDS011;55114;52.052;5.238;2022-07-22T06:33:05;3.63;;;1.10;;
68284;SDS011;55114;52.052;5.238;2022-07-22T06:35:32;5.93;;;1.38;;
68284;SDS011;55114;52.052;5.238;2022-07-22T06:37:59;5.18;;;1.30;;
68284;SDS011;55114;52.052;5.238;2022-07-22T06:40:32;4.72;;;1.30;;
68284;SDS011;55114;52.052;5.238;2022-07-22T06:42:59;3.67;;;1.27;;
68284;SDS011;55114;52.052;5.238;2022-07-22T06:45:26;4.32;;;1.38;;
68284;SDS011;55114;52.052;5.238;2022-07-22T06:47:54;4.75;;;1.30;;
68284;SDS011;55114;52.052;5.238;2022-07-22T06:50:21;3.25;;;1.20;;
68284;SDS011;55114;52.052;5.238;2022-07-22T06:52:49;4.28;;;1.25;;
68284;SDS011;55114;52.052;5.238;2022-07-22T06:55:16;3.23;;;1.10;;
68284;SDS011;55114;52.052;5.238;2022-07-22T06:57:44;2.67;;;1.20;;
68284;SDS011;55114;52.052;5.238;2022-07-22T07:00:11;4.22;;;1.20;;
68284;SDS011;55114;52.052;5.238;2022-07-22T07:02:38;2.90;;;1.20;;
68284;SDS011;55114;52.052;5.238;2022-07-22T07:05:06;3.03;;;1.10;;
68284;SDS011;55114;52.052;5.238;2022-07-22T07:07:45;4.03;;;1.40;;
68284;SDS011;55114;52.052;5.238;2022-07-22T07:10:12;4.80;;;1.08;;
68284;SDS011;55114;52.052;5.238;2022-07-22T07:12:41;5.75;;;1.30;;
68284;SDS011;55114;52.052;5.238;2022-07-22T07:15:09;3.05;;;1.30;;
68284;SDS011;55114;52.052;5.238;2022-07-22T07:17:53;4.30;;;1.13;;
68284;SDS011;55114;52.052;5.238;2022-07-22T07:20:21;4.13;;;1.10;;
68284;SDS011;55114;52.052;5.238;2022-07-22T07:22:48;4.22;;;1.02;;
68284;SDS011;55114;52.052;5.238;2022-07-22T07:25:15;4.63;;;1.30;;
68284;SDS011;55114;52.052;5.238;2022-07-22T07:27:48;3.60;;;1.30;;
68284;SDS011;55114;52.052;5.238;2022-07-22T07:30:16;3.65;;;1.02;;
68284;SDS011;55114;52.052;5.238;2022-07-22T07:32:43;2.43;;;1.00;;
68284;SDS011;55114;52.052;5.238;2022-07-22T07:35:10;3.67;;;1.20;;
68284;SDS011;55114;52.052;5.238;2022-07-22T07:37:37;3.47;;;1.30;;
68284;SDS011;55114;52.052;5.238;2022-07-22T07:40:05;4.20;;;1.15;;
68284;SDS011;55114;52.052;5.238;2022-07-22T07:42:33;2.90;;;1.20;;
68284;SDS011;55114;52.052;5.238;2022-07-22T07:45:00;3.57;;;1.43;;
68284;SDS011;55114;52.052;5.238;2022-07-22T07:47:27;3.90;;;1.10;;
68284;SDS011;55114;52.052;5.238;2022-07-22T07:49:54;3.13;;;1.40;;
68284;SDS011;55114;52.052;5.238;2022-07-22T07:52:23;4.03;;;1.25;;
68284;SDS011;55114;52.052;5.238;2022-07-22T07:54:50;3.83;;;1.17;;
68284;SDS011;55114;52.052;5.238;2022-07-22T07:57:37;3.97;;;1.13;;
68284;SDS011;55114;52.052;5.238;2022-07-22T08:00:05;5.05;;;1.63;;
68284;SDS011;55114;52.052;5.238;2022-07-22T08:02:37;8.15;;;1.30;;
68284;SDS011;55114;52.052;5.238;2022-07-22T08:05:06;2.88;;;0.98;;
68284;SDS011;55114;52.052;5.238;2022-07-22T08:07:33;4.78;;;1.30;;
68284;SDS011;55114;52.052;5.238;2022-07-22T08:10:01;3.70;;;1.10;;
68284;SDS011;55114;52.052;5.238;2022-07-22T08:12:48;3.20;;;1.30;;
68284;SDS011;55114;52.052;5.238;2022-07-22T08:15:16;3.42;;;1.20;;
68284;SDS011;55114;52.052;5.238;2022-07-22T08:17:43;2.97;;;1.17;;
68284;SDS011;55114;52.052;5.238;2022-07-22T08:20:10;2.65;;;1.15;;
68284;SDS011;55114;52.052;5.238;2022-07-22T08:22:44;3.97;;;1.40;;
68284;SDS011;55114;52.052;5.238;2022-07-22T08:25:11;3.63;;;1.20;;
68284;SDS011;55114;52.052;5.238;2022-07-22T08:27:38;4.70;;;1.23;;
68284;SDS011;55114;52.052;5.238;2022-07-22T08:30:06;4.93;;;1.55;;
68284;SDS011;55114;52.052;5.238;2022-07-22T08:32:33;4.28;;;1.20;;
68284;SDS011;55114;52.052;5.238;2022-07-22T08:35:03;3.83;;;1.13;;
68284;SDS011;55114;52.052;5.238;2022-07-22T08:37:30;5.18;;;1.42;;
68284;SDS011;55114;52.052;5.238;2022-07-22T08:39:57;3.88;;;1.38;;
68284;SDS011;55114;52.052;5.238;2022-07-22T08:42:25;2.95;;;1.20;;
68284;SDS011;55114;52.052;5.238;2022-07-22T08:44:53;4.38;;;1.20;;
68284;SDS011;55114;52.052;5.238;2022-07-22T08:47:28;5.87;;;1.40;;
68284;SDS011;55114;52.052;5.238;2022-07-22T08:50:06;3.58;;;1.13;;
68284;SDS011;55114;52.052;5.238;2022-07-22T08:52:34;3.63;;;1.35;;
68284;SDS011;55114;52.052;5.238;2022-07-22T08:55:02;2.92;;;1.02;;
68284;SDS011;55114;52.052;5.238;2022-07-22T08:57:29;3.00;;;1.20;;
68284;SDS011;55114;52.052;5.238;2022-07-22T08:59:58;4.50;;;1.23;;
68284;SDS011;55114;52.052;5.238;2022-07-22T09:02:26;3.58;;;1.50;;
68284;SDS011;55114;52.052;5.238;2022-07-22T09:07:25;4.00;;;1.27;;
68284;SDS011;55114;52.052;5.238;2022-07-22T09:09:52;3.58;;;1.40;;
68284;SDS011;55114;52.052;5.238;2022-07-22T09:12:19;3.53;;;1.50;;
68284;SDS011;55114;52.052;5.238;2022-07-22T09:14:49;4.30;;;1.35;;
68284;SDS011;55114;52.052;5.238;2022-07-22T09:17:30;3.85;;;1.42;;
68284;SDS011;55114;52.052;5.238;2022-07-22T09:19:58;3.72;;;1.50;;
68284;SDS011;55114;52.052;5.238;2022-07-22T09:22:39;3.83;;;1.30;;
68284;SDS011;55114;52.052;5.238;2022-07-22T09:27:49;4.20;;;1.83;;
68284;SDS011;55114;52.052;5.238;2022-07-22T09:30:18;3.38;;;1.63;;
68284;SDS011;55114;52.052;5.238;2022-07-22T09:32:48;5.15;;;1.50;;
68284;SDS011;55114;52.052;5.238;2022-07-22T09:35:16;3.50;;;1.50;;
68284;SDS011;55114;52.052;5.238;2022-07-22T09:37:49;3.07;;;1.50;;
68284;SDS011;55114;52.052;5.238;2022-07-22T09:40:24;4.57;;;1.70;;
68284;SDS011;55114;52.052;5.238;2022-07-22T09:45:19;4.63;;;1.50;;
68284;SDS011;55114;52.052;5.238;2022-07-22T09:47:47;2.75;;;1.48;;
68284;SDS011;55114;52.052;5.238;2022-07-22T09:52:42;2.75;;;1.40;;
68284;SDS011;55114;52.052;5.238;2022-07-22T09:55:09;3.80;;;1.63;;
68284;SDS011;55114;52.052;5.238;2022-07-22T09:57:36;4.18;;;1.52;;
68284;SDS011;55114;52.052;5.238;2022-07-22T10:00:03;5.82;;;1.70;;
68284;SDS011;55114;52.052;5.238;2022-07-22T10:02:32;5.03;;;1.63;;
68284;SDS011;55114;52.052;5.238;2022-07-22T10:05:00;5.18;;;1.80;;
68284;SDS011;55114;52.052;5.238;2022-07-22T10:07:27;3.53;;;1.80;;
68284;SDS011;55114;52.052;5.238;2022-07-22T10:09:54;3.72;;;1.58;;
68284;SDS011;55114;52.052;5.238;2022-07-22T10:12:21;5.15;;;1.70;;
68284;SDS011;55114;52.052;5.238;2022-07-22T10:14:49;5.13;;;1.73;;
68284;SDS011;55114;52.052;5.238;2022-07-22T10:17:16;4.28;;;1.85;;
68284;SDS011;55114;52.052;5.238;2022-07-22T10:19:43;5.05;;;1.92;;
68284;SDS011;55114;52.052;5.238;2022-07-22T10:22:44;5.95;;;1.80;;
68284;SDS011;55114;52.052;5.238;2022-07-22T10:25:11;3.00;;;1.60;;
68284;SDS011;55114;52.052;5.238;2022-07-22T10:27:49;4.07;;;1.70;;
68284;SDS011;55114;52.052;5.238;2022-07-22T10:30:18;3.90;;;1.85;;
68284;SDS011;55114;52.052;5.238;2022-07-22T10:32:46;3.70;;;1.90;;
68284;SDS011;55114;52.052;5.238;2022-07-22T10:35:28;4.47;;;2.50;;
68284;SDS011;55114;52.052;5.238;2022-07-22T10:37:56;8.65;;;3.10;;
68284;SDS011;55114;52.052;5.238;2022-07-22T10:41:06;6.30;;;3.07;;
68284;SDS011;55114;52.052;5.238;2022-07-22T10:43:15;6.32;;;3.05;;
68284;SDS011;55114;52.052;5.238;2022-07-22T10:45:58;5.38;;;2.85;;
68284;SDS011;55114;52.052;5.238;2022-07-22T10:53:39;5.50;;;2.87;;
68284;SDS011;55114;52.052;5.238;2022-07-22T10:56:17;5.90;;;3.25;;
68284;SDS011;55114;52.052;5.238;2022-07-22T10:58:49;6.78;;;3.28;;
68284;SDS011;55114;52.052;5.238;2022-07-22T11:01:18;8.00;;;3.10;;
68284;SDS011;55114;52.052;5.238;2022-07-22T11:03:47;6.43;;;3.10;;
68284;SDS011;55114;52.052;5.238;2022-07-22T11:08:57;6.93;;;3.35;;
68284;SDS011;55114;52.052;5.238;2022-07-22T11:14:01;5.20;;;3.15;;
68284;SDS011;55114;52.052;5.238;2022-07-22T11:16:28;5.35;;;3.50;;
68284;SDS011;55114;52.052;5.238;2022-07-22T11:18:56;5.77;;;3.10;;
68284;SDS011;55114;52.052;5.238;2022-07-22T11:21:25;8.15;;;3.97;;
68284;SDS011;55114;52.052;5.238;2022-07-22T11:23:56;6.15;;;3.20;;
68284;SDS011;55114;52.052;5.238;2022-07-22T11:26:25;7.13;;;3.75;;
68284;SDS011;55114;52.052;5.238;2022-07-22T11:28:52;4.97;;;3.20;;
68284;SDS011;55114;52.052;5.238;2022-07-22T11:31:20;7.57;;;3.20;;
68284;SDS011;55114;52.052;5.238;2022-07-22T11:33:47;7.13;;;3.38;;
68284;SDS011;55114;52.052;5.238;2022-07-22T11:36:14;8.18;;;3.58;;
68284;SDS011;55114;52.052;5.238;2022-07-22T11:38:46;5.38;;;3.33;;
68284;SDS011;55114;52.052;5.238;2022-07-22T11:41:18;6.45;;;3.40;;
68284;SDS011;55114;52.052;5.238;2022-07-22T11:43:47;7.07;;;3.43;;
68284;SDS011;55114;52.052;5.238;2022-07-22T11:46:16;6.45;;;3.55;;
68284;SDS011;55114;52.052;5.238;2022-07-22T11:48:44;5.90;;;3.40;;
68284;SDS011;55114;52.052;5.238;2022-07-22T11:51:12;6.43;;;3.95;;
68284;SDS011;55114;52.052;5.238;2022-07-22T11:53:46;6.50;;;4.32;;
68284;SDS011;55114;52.052;5.238;2022-07-22T11:56:13;6.30;;;3.37;;
68284;SDS011;55114;52.052;5.238;2022-07-22T12:01:08;5.65;;;3.40;;
68284;SDS011;55114;52.052;5.238;2022-07-22T12:03:37;6.07;;;3.53;;
68284;SDS011;55114;52.052;5.238;2022-07-22T12:06:05;5.55;;;3.50;;
68284;SDS011;55114;52.052;5.238;2022-07-22T12:08:33;5.83;;;3.43;;
68284;SDS011;55114;52.052;5.238;2022-07-22T12:11:01;5.95;;;3.88;;
68284;SDS011;55114;52.052;5.238;2022-07-22T12:13:29;6.05;;;3.40;;
68284;SDS011;55114;52.052;5.238;2022-07-22T12:16:22;5.45;;;3.42;;
68284;SDS011;55114;52.052;5.238;2022-07-22T12:18:59;5.75;;;3.70;;
68284;SDS011;55114;52.052;5.238;2022-07-22T12:21:27;5.80;;;3.60;;
68284;SDS011;55114;52.052;5.238;2022-07-22T12:23:56;5.95;;;3.35;;
68284;SDS011;55114;52.052;5.238;2022-07-22T12:26:37;6.95;;;4.43;;
68284;SDS011;55114;52.052;5.238;2022-07-22T12:31:55;6.53;;;3.40;;
68284;SDS011;55114;52.052;5.238;2022-07-22T12:34:36;6.03;;;3.63;;
68284;SDS011;55114;52.052;5.238;2022-07-22T12:40:01;5.70;;;3.67;;
68284;SDS011;55114;52.052;5.238;2022-07-22T12:42:39;6.70;;;3.40;;
68284;SDS011;55114;52.052;5.238;2022-07-22T12:45:10;6.05;;;4.10;;
68284;SDS011;55114;52.052;5.238;2022-07-22T12:50:18;7.00;;;3.80;;
68284;SDS011;55114;52.052;5.238;2022-07-22T12:52:47;5.75;;;3.70;;
68284;SDS011;55114;52.052;5.238;2022-07-22T12:55:38;6.22;;;4.10;;
68284;SDS011;55114;52.052;5.238;2022-07-22T12:58:06;6.32;;;3.90;;
68284;SDS011;55114;52.052;5.238;2022-07-22T13:00:34;6.47;;;4.23;;
68284;SDS011;55114;52.052;5.238;2022-07-22T13:03:02;6.70;;;3.55;;
68284;SDS011;55114;52.052;5.238;2022-07-22T13:05:29;6.88;;;3.88;;
68284;SDS011;55114;52.052;5.238;2022-07-22T13:07:57;8.70;;;4.47;;
68284;SDS011;55114;52.052;5.238;2022-07-22T13:10:25;6.45;;;3.90;;
68284;SDS011;55114;52.052;5.238;2022-07-22T13:12:53;6.03;;;3.87;;
68284;SDS011;55114;52.052;5.238;2022-07-22T13:15:20;5.75;;;3.80;;
68284;SDS011;55114;52.052;5.238;2022-07-22T13:17:48;6.50;;;3.72;;
68284;SDS011;55114;52.052;5.238;2022-07-22T13:20:16;5.75;;;3.92;;
68284;SDS011;55114;52.052;5.238;2022-07-22T13:22:49;6.65;;;3.65;;
68284;SDS011;55114;52.052;5.238;2022-07-22T13:25:16;8.27;;;4.13;;
68284;SDS011;55114;52.052;5.238;2022-07-22T13:27:44;8.60;;;4.40;;
68284;SDS011;55114;52.052;5.238;2022-07-22T13:30:11;7.22;;;4.60;;
68284;SDS011;55114;52.052;5.238;2022-07-22T13:32:39;6.15;;;4.10;;
68284;SDS011;55114;52.052;5.238;2022-07-22T13:35:14;6.45;;;4.05;;
68284;SDS011;55114;52.052;5.238;2022-07-22T13:37:41;6.07;;;4.27;;
68284;SDS011;55114;52.052;5.238;2022-07-22T13:40:08;7.68;;;4.07;;
68284;SDS011;55114;52.052;5.238;2022-07-22T13:42:36;6.88;;;3.65;;
68284;SDS011;55114;52.052;5.238;2022-07-22T13:45:03;5.43;;;3.70;;
68284;SDS011;55114;52.052;5.238;2022-07-22T13:47:34;6.47;;;4.20;;
68284;SDS011;55114;52.052;5.238;2022-07-22T13:50:01;5.30;;;3.33;;
68284;SDS011;55114;52.052;5.238;2022-07-22T13:52:29;5.30;;;2.95;;
68284;SDS011;55114;52.052;5.238;2022-07-22T13:54:56;6.75;;;3.15;;
68284;SDS011;55114;52.052;5.238;2022-07-22T13:57:23;5.57;;;3.05;;
68284;SDS011;55114;52.052;5.238;2022-07-22T13:59:50;6.22;;;3.35;;
68284;SDS011;55114;52.052;5.238;2022-07-22T14:02:17;5.50;;;3.27;;
68284;SDS011;55114;52.052;5.238;2022-07-22T14:04:44;6.20;;;3.10;;
68284;SDS011;55114;52.052;5.238;2022-07-22T14:07:12;4.82;;;3.38;;
68284;SDS011;55114;52.052;5.238;2022-07-22T14:09:39;5.47;;;3.30;;
68284;SDS011;55114;52.052;5.238;2022-07-22T14:12:06;4.22;;;3.05;;
68284;SDS011;55114;52.052;5.238;2022-07-22T14:14:33;5.63;;;2.90;;
68284;SDS011;55114;52.052;5.238;2022-07-22T14:17:01;5.50;;;3.05;;
68284;SDS011;55114;52.052;5.238;2022-07-22T14:19:29;4.40;;;2.85;;
68284;SDS011;55114;52.052;5.238;2022-07-22T14:21:56;6.78;;;3.10;;
68284;SDS011;55114;52.052;5.238;2022-07-22T14:24:23;5.10;;;2.92;;
68284;SDS011;55114;52.052;5.238;2022-07-22T14:26:52;4.57;;;2.70;;
68284;SDS011;55114;52.052;5.238;2022-07-22T14:29:19;5.07;;;2.97;;
68284;SDS011;55114;52.052;5.238;2022-07-22T14:31:48;5.63;;;3.05;;
68284;SDS011;55114;52.052;5.238;2022-07-22T14:34:15;6.63;;;2.78;;
68284;SDS011;55114;52.052;5.238;2022-07-22T14:36:45;4.55;;;2.92;;
68284;SDS011;55114;52.052;5.238;2022-07-22T14:39:12;4.77;;;2.63;;
68284;SDS011;55114;52.052;5.238;2022-07-22T14:41:39;5.32;;;2.50;;
68284;SDS011;55114;52.052;5.238;2022-07-22T14:44:07;4.60;;;2.70;;
68284;SDS011;55114;52.052;5.238;2022-07-22T14:46:34;6.50;;;2.75;;
68284;SDS011;55114;52.052;5.238;2022-07-22T14:49:01;4.90;;;3.00;;
68284;SDS011;55114;52.052;5.238;2022-07-22T14:51:28;6.70;;;3.20;;
68284;SDS011;55114;52.052;5.238;2022-07-22T14:53:56;4.75;;;2.60;;
68284;SDS011;55114;52.052;5.238;2022-07-22T14:56:23;9.88;;;4.00;;
68284;SDS011;55114;52.052;5.238;2022-07-22T14:58:51;6.03;;;3.13;;
68284;SDS011;55114;52.052;5.238;2022-07-22T15:01:18;5.25;;;3.00;;
68284;SDS011;55114;52.052;5.238;2022-07-22T15:03:52;6.20;;;2.90;;
68284;SDS011;55114;52.052;5.238;2022-07-22T15:06:20;5.30;;;2.75;;
68284;SDS011;55114;52.052;5.238;2022-07-22T15:08:47;5.20;;;2.65;;
68284;SDS011;55114;52.052;5.238;2022-07-22T15:11:15;4.78;;;2.53;;
68284;SDS011;55114;52.052;5.238;2022-07-22T15:13:42;5.38;;;2.53;;
68284;SDS011;55114;52.052;5.238;2022-07-22T15:16:09;5.90;;;2.53;;
68284;SDS011;55114;52.052;5.238;2022-07-22T15:18:37;4.43;;;2.63;;
68284;SDS011;55114;52.052;5.238;2022-07-22T15:21:04;5.22;;;2.10;;
68284;SDS011;55114;52.052;5.238;2022-07-22T15:23:31;5.70;;;2.40;;
68284;SDS011;55114;52.052;5.238;2022-07-22T15:25:59;4.13;;;2.10;;
68284;SDS011;55114;52.052;5.238;2022-07-22T15:28:26;8.80;;;2.20;;